Burns Pinion Ridge Reserve, California Weather observations

Data are for 10 minute period ending at time listed.
 Day   Time   Solar   Ave.   Ave.  Ave.  Vector  Max.   Baro.   Total    
  of    of     Rad.   Air    Rel.  Wind   Wind   Wind  Press.  Precip.   
Year   Day            Temp.  Hum.  Speed  Dir.   Gust                    
2017   (PST)  Kw/m2    F      %     mph   deg.    mph    mb.     in.     
-------------------------------------------------------------------------
  22   13:10   0.09   37.1    94   11.2   202    21.5   873.2    0.01 
  22   13:20   0.05   36.8    95   12.3   211    30.0   873.5    0.03 
  22   13:30   0.05   36.8    96   12.4   213    24.0   873.2    0.02 
  22   13:40   0.08   36.9    96    9.4   199    22.7   872.6    0.02 
  22   13:50   0.05   37.2    96    9.8   212    17.5   872.7    0.01 
  22   14:00   0.03   37.3    96    9.7   206    17.1   872.8    0.02 
  22   14:10   0.04   37.3    97    9.5   192    23.0   872.3    0.02 
  22   14:20   0.02   37.4    97    8.6   199    19.3   872.9    0.02 
  22   14:30   0.02   37.4    97    7.8   197    23.9   872.7    0.03 
  22   14:40   0.04   37.5    97    6.5   170    14.5   872.0    0.01 
  22   14:50   0.02   37.4    97    9.1   165    20.5   872.2    0.02 
  22   15:00   0.01   37.0    97    9.3   164    19.7   872.4    0.05 
  22   15:10   0.03   37.1    97    7.9   186    19.6   872.0    0.05 
  22   15:20   0.01   37.2    97    6.7   188    17.9   872.1    0.01 
  22   15:30   0.01   37.1    97    6.4   179    13.1   872.3    0.03 
  22   15:40   0.02   37.2    97    6.1   166    13.4   871.9    0.03 
  22   15:50   0.01   37.2    97    7.1   192    13.9   872.3    0.02 
  22   16:00   0.00   37.1    98    8.0   182    18.8   872.5    0.02 
  22   16:10   0.01   37.1    98    6.6   187    16.8   872.2    0.04 
  22   16:20   0.00   37.0    98    6.7   184    16.3   871.8    0.02 
  22   16:30   0.00   36.9    98    7.3   191    17.5   871.6    0.03 
  22   16:40   0.00   37.0    98    8.3   183    21.5   871.2    0.02 
  22   16:50   0.00   36.9    98   10.8   197    22.0   871.3    0.02 
  22   17:00   0.00   36.8    98   10.6   198    25.2   871.5    0.03 
  22   17:10   0.00   36.7    98   12.0   200    30.6   871.2    0.03 
  22   17:20   0.00   36.6    98   11.8   204    24.7   871.1    0.04 
  22   17:30   0.00   36.6    98   12.4   201    26.1   870.8    0.11 
  22   17:40   0.00   36.5    98   13.6   200    29.1   870.3    0.07 
  22   17:50   0.00   36.6    98   16.4   213    27.7   870.5    0.05 
  22   18:00   0.00   36.6    98   17.1   214    31.4   871.0    0.04 
  22   18:10   0.00   36.7    98   14.2   202    30.9   870.8    0.03 
  22   18:20   0.00   36.7    98   12.9   203    26.8   871.0    0.03 
  22   18:30   0.00   36.8    98   12.0   197    25.0   871.0    0.05 
  22   18:40   0.00   36.9    98   11.8   193    22.5   870.5    0.04 
  22   18:50   0.00   37.0    98   12.5   213    24.5   870.6    0.02 
  22   19:00   0.00   37.2    98   11.4   201    25.9   870.7    0.01 
  22   19:10   0.00   37.4    98   11.6   214    25.5   870.8    0.02 
  22   19:20   0.00   37.7    98    9.8   205    21.1   870.9    0.01 
  22   19:30   0.00   37.8    98   10.0   200    20.6   870.9    0.02 
  22   19:40   0.00   38.0    99    8.4   190    20.5   870.7    0.02 
  22   19:50   0.00   38.4    99    8.4   188    21.2   870.5    0.01 
  22   20:00   0.00   38.8    99    9.2   177    26.1   870.3    0.01 
  22   20:10   0.00   39.3    99   10.5   197    20.8   870.3    0.02 
  22   20:20   0.00   39.1    99   11.5   205    24.7   870.5    0.02 
  22   20:30   0.00   39.0    99   12.1   203    25.9   870.2    0.02 
  22   20:40   0.00   39.4    99   10.0   190    24.6   870.1    0.03 
  22   20:50   0.00   40.0    99    9.7   193    20.2   870.0    0.03 
  22   21:00   0.00   40.2    99   10.1   189    22.8   870.0    0.04 
  22   21:10   0.00   40.4    99    7.7   186    21.2   870.0    0.03 
  22   21:20   0.00   40.8    99    9.6   193    24.4   869.8    0.03 
  22   21:30   0.00   40.9    99   10.1   173    22.7   869.7    0.01 
  22   21:40   0.00   41.4    99   11.4   172    21.6   869.9    0.02 
  22   21:50   0.00   41.3    99    8.1   190    17.4   869.8    0.01 
  22   22:00   0.00   41.7    99   11.2   184    22.9   869.9    0.04 
  22   22:10   0.00   41.5    99   11.9   201    24.3   870.0    0.06 
  22   22:20   0.00   41.5    99    9.2   187    22.7   870.0    0.03 
  22   22:30   0.00   41.3    99   10.0   193    21.2   870.0    0.03 
  22   22:40   0.00   41.2    99   11.2   210    26.3   869.8    0.01 
  22   22:50   0.00   41.3    99   17.6   217    31.4   869.7    0.01 
  22   23:00   0.00   41.4    99   16.9   217    30.8   869.8    0.00 
  22   23:10   0.00   41.3    99   18.8   215    30.0   869.8    0.00 
  22   23:20   0.00   41.2    99   20.6   211    32.2   870.0    0.01 
  22   23:30   0.00   41.1    99   19.3   213    31.0   870.0    0.01 
  22   23:40   0.00   40.9    99   20.4   211    31.6   869.9    0.00 
  22   23:50   0.00   40.5    99   22.2   213    36.0   869.8    0.01 
  23    0:00   0.00   39.9    99   21.1   216    34.0   869.6    0.00 
  23    0:10   0.00   39.6    99   20.6   214    33.1   869.5    0.00 
  23    0:20   0.00   39.7    98   18.3   213    31.7   869.7    0.01 
  23    0:30   0.00   39.6    98   20.8   213    35.1   869.7    0.02 
  23    0:40   0.00   39.6    98   22.5   214    35.7   869.5    0.01 
  23    0:50   0.00   39.6    97   21.2   211    31.7   869.0    0.01 
  23    1:00   0.00   39.7    97   18.6   212    28.7   868.6    0.00 
  23    1:10   0.00   39.7    97   16.0   215    26.8   868.5    0.01 
  23    1:20   0.00   39.8    96   15.9   214    33.3   868.3    0.02 
  23    1:30   0.00   40.1    93   20.5   218    35.2   868.2    0.01 
  23    1:40   0.00   40.0    92   16.8   211    27.1   868.1    0.04 
  23    1:50   0.00   39.7    94   11.8   210    22.4   868.1    0.02 
  23    2:00   0.00   39.6    96    7.8   207    14.9   868.1    0.04 
  23    2:10   0.00   39.5    96   10.2   226    24.9   868.3    0.04 
  23    2:20   0.00   39.4    96   14.7   212    24.2   868.2    0.02 
  23    2:30   0.00   39.6    96   15.8   217    29.4   868.1    0.01 
  23    2:40   0.00   39.6    96   14.0   215    25.3   868.2    0.01 
  23    2:50   0.00   39.4    97   15.2   214    27.5   868.3    0.01 
  23    3:00   0.00   39.2    97   16.4   213    26.7   868.5    0.01 
  23    3:10   0.00   38.9    97   16.0   212    26.7   868.5    0.01 
  23    3:20   0.00   38.6    97   15.5   216    31.4   868.1    0.00 
  23    3:30   0.00   38.6    94   17.9   214    31.3   867.9    0.00 
  23    3:40   0.00   38.7    87   18.4   211    32.0   867.6    0.00 
  23    3:50   0.00   38.9    84   17.7   211    32.7   867.7    0.00 
  23    4:00   0.00   38.7    86   15.0   217    30.1   867.9    0.00 
  23    4:10   0.00   38.0    88   13.3   215    26.0   867.9    0.00 
  23    4:20   0.00   37.5    86   13.3   214    23.2   867.9    0.00 
  23    4:30   0.00   36.9    88   16.6   215    27.3   868.0    0.00 
  23    4:40   0.00   36.2    91   17.8   212    29.5   868.1    0.01 
  23    4:50   0.00   35.9    92   16.5   213    26.4   868.1    0.00 
  23    5:00   0.00   35.8    90   14.5   216    31.5   867.8    0.00 
  23    5:10   0.00   36.7    82   14.9   217    26.7   867.8    0.00 
  23    5:20   0.00   36.3    84   16.3   215    28.0   867.7    0.00 
  23    5:30   0.00   35.5    89   18.6   214    29.8   867.7    0.00 
  23    5:40   0.00   35.1    91   16.0   212    27.8   867.9    0.00 
  23    5:50   0.00   35.2    88   11.8   217    24.2   868.0    0.00 
  23    6:00   0.00   35.1    87   11.6   224    24.7   868.0    0.00 
  23    6:10   0.00   34.7    87   12.1   228    24.3   867.9    0.00 
  23    6:20   0.00   34.6    89   14.7   212    27.2   867.9    0.01 
  23    6:30   0.00   34.5    92   14.9   212    25.6   868.1    0.00 
  23    6:40   0.00   34.2    93   17.1   212    28.1   868.4    0.00 
  23    6:50   0.00   33.9    93   17.4   215    26.5   868.4    0.01 
  23    7:00   0.01   33.6    94   15.1   220    23.9   868.3    0.00 
  23    7:10   0.01   33.4    94   10.3   217    20.0   868.4    0.00 
  23    7:20   0.02   33.3    95    8.6   214    18.5   868.3    0.00 
  23    7:30   0.08   33.7    94   13.4   212    21.6   868.3    0.00 
  23    7:40   0.13   34.0    93   13.7   217    24.8   868.3    0.00 
  23    7:50   0.13   34.3    93   10.5   214    19.8   868.5    0.00 
  23    8:00   0.04   33.9    94   11.3   214    19.4   868.8    0.01 
  23    8:10   0.04   33.0    94   12.5   215    23.6   869.0    0.01 
  23    8:20   0.08   32.7    95   11.0   213    21.4   869.1    0.00 
  23    8:30   0.12   33.2    95    8.0   214    13.5   869.1    0.03 
  23    8:40   0.06   33.5    96    7.1   221    18.2   869.3    0.00 
  23    8:50   0.17   33.3    95    9.6   233    20.1   869.2    0.01 
  23    9:00   0.29   34.8    92    8.1   241    14.1   869.1    0.00 
  23    9:10   0.27   34.4    91    8.7   239    16.5   869.2    0.01 
  23    9:20   0.37   35.6    90    8.2   224    14.2   869.1    0.00 
  23    9:30   0.43   36.3    89    9.1   220    15.3   869.2    0.00 
  23    9:40   0.26   36.0    91    9.7   218    16.3   869.5    0.00 
  23    9:50   0.35   35.9    91   10.3   216    17.8   869.4    0.00 
  23   10:00   0.40   35.9    90   12.8   213    25.2   869.2    0.00 
  23   10:10   0.19   35.0    90   15.0   212    24.7   869.2    0.00 
  23   10:20   0.14   34.6    91   14.6   215    23.8   869.2    0.00 
  23   10:30   0.09   34.7    92   10.6   220    19.3   869.3    0.00 
  23   10:40   0.05   33.8    91   12.8   228    25.9   869.3    0.01 
  23   10:50   0.06   32.6    93   13.0   236    22.4   869.1    0.00 
  23   11:00   0.03   32.3    94   10.9   246    18.7   869.0    0.00 
  23   11:10   0.01   32.0    95    5.9   248    12.6   868.9    0.00 
  23   11:20   0.01   31.7    95    5.6   250    10.1   868.9    0.00 
  23   11:30   0.02   31.7    96    8.1   246    19.2   868.6    0.00 
  23   11:40   0.05   32.1    96   10.9   215    21.0   868.0    0.00 
  23   11:50   0.05   31.8    96   11.4   210    19.9   868.0    0.00 
  23   12:00   0.04   31.5    97    8.0   200    20.0   867.9    0.00 
  23   12:10   0.07   31.7    97    8.1   207    15.9   867.8    0.00 
  23   12:20   0.12   32.0    97    8.5   211    16.3   867.5    0.00 
  23   12:30   0.13   32.1    97    9.9   210    15.9   867.5    0.02 
  23   12:40   0.15   32.3    97   10.4   210    17.3   867.7    0.02 
  23   12:50   0.25   32.8    97    8.3   211    13.0   867.2    0.02 
  23   13:00   0.44   33.5    97    9.7   213    15.3   867.0    0.04 

Return to Burns Pinion Ridge Reserve graphs page.


Western Regional Climate Center,wrcc@dri.edu